Aérodrome :
LOGIN :

S'inscrire | Disclaimer

   EN    FR    IT 

 










Légende :    VFR   VFR Marginal   IFR   IFR Intensif   IFR Très Intensif
Visi : 
Plafond : 
>= 8 km
>= 3000ft
5 à 8 km
1000 à 3000 ft
1500m à 5 km
500 à 1000 ft
800 à 1500m
200 à 500 ft
< 800m
< 200 ft
Symboles :   Orages  Brouillard  Fortes neiges  Fortes précipitations  Vent > 20 kt
SIGMETs :   Divers  Orages  Givrage  Turbulence  Onde Orograph.  Cendres Volcan.






- Altitude de l'aérodrome : 1325 ft
- Code IATA : EBU


LFMH - St-Etienne Boutheon

DERNIER METAR :
  • 271430Z AUTO 22006KT 180V250 9999 BKN044 BKN054 OVC064 14/05 Q1003 TEMPO 33015G30KT FEW030TCU

METARs EXPIRÉS :
  • 271400Z AUTO 22011KT 200V260 9999 FEW041 BKN058 BKN160 13/04 Q1003 BECMG 33011KT
  • 271330Z AUTO 21015KT 180V240 9999 FEW040 SCT056 12/03 Q1003 BECMG 33011KT
  • 271300Z AUTO 21017KT 9999 SCT040 BKN046 BKN052 11/03 Q1003 BECMG 24015G25KT
  • 271230Z AUTO 22018KT 9999 FEW045 SCT100 BKN130 11/03 Q1003 BECMG 24015G25KT
  • 271200Z AUTO 22019G31KT 9999 FEW033 SCT076 BKN100 11/03 Q1004 NOSIG

TAF TAF LFMH
Valide du 27 à 15h jusqu'au 28 à 15h UTC


271400Z 2715/2815 21010KT 9999 SCT050
BECMG 2715/2717 33011KT
TEMPO 2716/2719 33015G30KT FEW030TCU
BECMG 2800/2802 17004KT
ATIS : +33 4 77 36 17 51



MET'MAP, la Météo Aéronautique d'un coup d'oeil ! - Copyright ORBIFLY Décembre 2007 - Disclaimer

ORBIFLY MET'MAP TEAM :

Programmation & Développement : Alexandra Zaïnal
Sur une idée originale de : Baudouin d'Aumeries
Assistance à la programmation : Marc-Olivier Méhu
Soutien technique & logistique : Manuel Goepfert

Contact : metmap@orbifly.com




SOURCES & CREDITS :

   NOAA